Time;durP1;ratioP1;P1;durP2;ratioP2;P2;SDS_P1;SDS_P2;PMS_P1;PMS_P2;Temp;Humidity;BMP_temperature;BMP_pressure;BME280_temperature;BME280_humidity;BME280_pressure;Samples;Min_cycle;Max_cycle;Signal;HPM_P1;HPM_P2
2021/05/09 00:02:20;;;;;;;16.33;7.72;;;;;;;;;;5066887;28;20031;-71
2021/05/09 00:04:46;;;;;;;19.55;7.68;;;;;;;;;;5061631;28;20028;-71
2021/05/09 00:07:13;;;;;;;16.80;8.80;;;;;;;;;;5069373;28;20162;-71
2021/05/09 00:09:38;;;;;;;14.88;8.82;;;;;;;;;;5069858;28;20028;-71
2021/05/09 00:12:06;;;;;;;14.35;7.90;;;;;;;;;;5078832;28;20389;-71
2021/05/09 00:14:31;;;;;;;10.35;8.55;;;;;;;;;;5066802;28;20526;-71
2021/05/09 00:16:57;;;;;;;12.15;7.47;;;;;;;;;;5080535;28;20051;-71
2021/05/09 00:19:23;;;;;;;10.20;8.25;;;;;;;;;;5069281;28;20032;-71
2021/05/09 00:21:49;;;;;;;17.73;8.93;;;;;;;;;;5070483;28;20020;-71
2021/05/09 00:24:16;;;;;;;15.10;8.07;;;;;;;;;;5070049;28;20024;-71
2021/05/09 00:26:42;;;;;;;14.35;8.90;;;;;;;;;;5064551;28;20021;-71
2021/05/09 00:29:08;;;;;;;10.35;7.10;;;;;;;;;;5070024;28;20536;-71
2021/05/09 00:31:34;;;;;;;14.15;7.78;;;;;;;;;;5074271;28;20025;-71
2021/05/09 00:34:00;;;;;;;11.50;7.45;;;;;;;;;;5073055;28;20025;-71
2021/05/09 00:36:26;;;;;;;12.77;6.97;;;;;;;;;;5067342;28;20029;-71
2021/05/09 00:38:52;;;;;;;11.65;7.68;;;;;;;;;;5070380;28;20020;-71
2021/05/09 00:41:18;;;;;;;12.00;7.43;;;;;;;;;;5071591;28;20401;-71
2021/05/09 00:43:44;;;;;;;15.52;7.65;;;;;;;;;;5057702;28;20032;-71
2021/05/09 00:46:10;;;;;;;11.95;7.45;;;;;;;;;;5066856;28;20509;-71
2021/05/09 00:48:36;;;;;;;13.23;7.55;;;;;;;;;;5078476;28;20017;-72
2021/05/09 00:51:02;;;;;;;12.68;7.50;;;;;;;;;;5077190;28;20114;-71
2021/05/09 00:53:28;;;;;;;10.85;6.93;;;;;;;;;;5064201;28;20056;-72
2021/05/09 00:55:55;;;;;;;13.65;7.07;;;;;;;;;;5079018;28;20484;-71
2021/05/09 00:58:23;;;;;;;13.52;7.35;;;;;;;;;;5073938;28;20071;-72
2021/05/09 01:00:50;;;;;;;15.00;7.50;;;;;;;;;;5079914;28;20036;-72
2021/05/09 01:03:19;;;;;;;11.68;7.15;;;;;;;;;;5065813;28;20544;-71
2021/05/09 01:05:45;;;;;;;12.27;7.60;;;;;;;;;;5075322;28;20031;-72
2021/05/09 01:08:11;;;;;;;15.73;7.68;;;;;;;;;;5100716;28;20036;-72
2021/05/09 01:10:37;;;;;;;14.35;8.40;;;;;;;;;;5075072;28;20035;-72
2021/05/09 01:13:03;;;;;;;11.43;7.72;;;;;;;;;;5068282;28;20029;-72
2021/05/09 01:15:29;;;;;;;13.07;8.45;;;;;;;;;;5082255;28;20024;-72
2021/05/09 01:17:55;;;;;;;12.73;7.95;;;;;;;;;;5071965;28;20024;-72
2021/05/09 01:20:21;;;;;;;18.17;8.77;;;;;;;;;;5065445;28;20545;-72
2021/05/09 01:22:47;;;;;;;16.80;7.95;;;;;;;;;;5078699;28;20032;-71
2021/05/09 01:25:13;;;;;;;12.77;7.93;;;;;;;;;;5065327;28;20029;-71
2021/05/09 01:27:39;;;;;;;13.07;7.82;;;;;;;;;;5072684;28;20024;-72
2021/05/09 01:30:07;;;;;;;13.30;8.05;;;;;;;;;;5061847;28;20485;-71
2021/05/09 01:32:33;;;;;;;19.05;8.18;;;;;;;;;;5078832;28;20031;-72
2021/05/09 01:34:59;;;;;;;16.20;8.40;;;;;;;;;;5077040;28;20029;-72
2021/05/09 01:37:25;;;;;;;15.27;7.90;;;;;;;;;;5065813;28;20056;-72
2021/05/09 01:39:51;;;;;;;18.23;8.75;;;;;;;;;;5083747;28;20056;-72
2021/05/09 01:42:17;;;;;;;12.70;8.05;;;;;;;;;;5072865;28;20442;-72
2021/05/09 01:44:56;;;;;;;13.35;8.85;;;;;;;;;;5074550;28;20056;-71
2021/05/09 01:47:23;;;;;;;12.75;7.72;;;;;;;;;;5069241;28;20485;-72
2021/05/09 01:49:49;;;;;;;11.88;8.13;;;;;;;;;;5072495;28;20032;-71
2021/05/09 01:52:15;;;;;;;21.20;8.05;;;;;;;;;;5075925;28;20033;-71
2021/05/09 01:54:41;;;;;;;12.48;6.72;;;;;;;;;;5066225;28;20039;-71
2021/05/09 01:57:07;;;;;;;16.05;6.68;;;;;;;;;;5068241;28;20025;-72
2021/05/09 01:59:33;;;;;;;14.98;6.30;;;;;;;;;;5067491;28;20429;-72
2021/05/09 02:01:58;;;;;;;11.02;6.93;;;;;;;;;;5084349;28;20437;-72
2021/05/09 02:04:24;;;;;;;15.20;6.28;;;;;;;;;;5078308;28;20032;-71
2021/05/09 02:06:50;;;;;;;10.48;6.70;;;;;;;;;;5064529;28;20028;-72
2021/05/09 02:09:16;;;;;;;11.13;7.57;;;;;;;;;;5075301;28;20130;-71
2021/05/09 02:11:42;;;;;;;14.05;6.90;;;;;;;;;;5076541;28;20032;-72
2021/05/09 02:14:09;;;;;;;14.40;6.90;;;;;;;;;;5072570;28;20016;-71
2021/05/09 02:16:35;;;;;;;9.50;6.40;;;;;;;;;;5072196;28;20020;-72
2021/05/09 02:19:01;;;;;;;12.52;6.93;;;;;;;;;;5078543;28;20040;-72
2021/05/09 02:21:26;;;;;;;10.50;5.65;;;;;;;;;;5066207;28;20029;-72
2021/05/09 02:23:52;;;;;;;9.75;5.35;;;;;;;;;;5082477;28;20020;-72
2021/05/09 02:26:19;;;;;;;14.82;5.90;;;;;;;;;;5068764;28;20071;-71
2021/05/09 02:28:45;;;;;;;10.45;6.72;;;;;;;;;;5068931;28;20020;-72
2021/05/09 02:31:11;;;;;;;8.90;5.50;;;;;;;;;;5069701;28;20029;-72
2021/05/09 02:33:37;;;;;;;9.57;5.80;;;;;;;;;;5076935;28;20047;-71
2021/05/09 02:36:03;;;;;;;8.40;5.28;;;;;;;;;;5070333;28;20059;-72
2021/05/09 02:38:29;;;;;;;9.23;5.63;;;;;;;;;;5076585;28;20462;-72
2021/05/09 02:40:55;;;;;;;9.65;5.43;;;;;;;;;;5065044;28;20111;-72
2021/05/09 02:43:21;;;;;;;11.65;5.60;;;;;;;;;;5079488;28;20105;-72
2021/05/09 02:45:47;;;;;;;13.07;5.30;;;;;;;;;;5072687;28;20074;-72
2021/05/09 02:48:13;;;;;;;9.30;6.25;;;;;;;;;;5070821;28;20037;-72
2021/05/09 02:50:39;;;;;;;9.93;5.00;;;;;;;;;;5068385;28;20102;-72
2021/05/09 02:53:05;;;;;;;7.60;5.30;;;;;;;;;;5086560;28;20486;-71
2021/05/09 02:55:31;;;;;;;7.78;5.30;;;;;;;;;;5067426;28;20501;-71
2021/05/09 02:57:57;;;;;;;8.55;5.13;;;;;;;;;;5079517;28;20028;-72
2021/05/09 03:00:23;;;;;;;11.13;6.00;;;;;;;;;;5068056;28;20024;-72
2021/05/09 03:02:49;;;;;;;9.32;5.88;;;;;;;;;;5065579;28;20052;-72
2021/05/09 03:05:15;;;;;;;7.65;4.93;;;;;;;;;;5071418;28;20024;-72
2021/05/09 03:07:41;;;;;;;9.27;5.75;;;;;;;;;;5068033;28;20033;-72
2021/05/09 03:10:07;;;;;;;8.88;5.13;;;;;;;;;;5071541;28;20029;-71
2021/05/09 03:12:33;;;;;;;15.57;5.60;;;;;;;;;;5071997;28;20039;-71
2021/05/09 03:14:59;;;;;;;10.60;5.00;;;;;;;;;;5071951;28;20029;-72
2021/05/09 03:17:25;;;;;;;9.98;5.78;;;;;;;;;;5074090;28;20077;-72
2021/05/09 03:19:51;;;;;;;9.95;5.13;;;;;;;;;;5074266;28;20405;-72
2021/05/09 03:22:17;;;;;;;9.48;5.15;;;;;;;;;;5076171;28;20102;-72
2021/05/09 03:24:43;;;;;;;11.02;5.32;;;;;;;;;;5068332;28;20017;-72
2021/05/09 03:27:09;;;;;;;9.23;5.15;;;;;;;;;;5068232;28;20017;-72
2021/05/09 03:29:34;;;;;;;12.77;6.22;;;;;;;;;;5067201;28;20024;-72
2021/05/09 03:32:00;;;;;;;10.10;5.25;;;;;;;;;;5061364;28;20363;-72
2021/05/09 03:34:26;;;;;;;6.60;4.50;;;;;;;;;;5074756;28;20023;-72
2021/05/09 03:36:52;;;;;;;7.10;4.70;;;;;;;;;;5079785;28;20133;-71
2021/05/09 03:39:20;;;;;;;7.60;4.68;;;;;;;;;;5071883;28;20268;-72
2021/05/09 03:41:46;;;;;;;10.38;5.25;;;;;;;;;;5064146;28;20040;-71
2021/05/09 03:44:12;;;;;;;8.43;5.28;;;;;;;;;;5070672;28;20034;-72
2021/05/09 03:46:38;;;;;;;12.43;5.47;;;;;;;;;;5065781;28;20044;-72
2021/05/09 03:49:04;;;;;;;12.48;5.25;;;;;;;;;;5070843;28;20071;-73
2021/05/09 03:51:30;;;;;;;11.45;5.20;;;;;;;;;;5076464;28;20033;-71
2021/05/09 03:53:56;;;;;;;11.07;5.22;;;;;;;;;;5060792;28;20025;-72
2021/05/09 03:56:21;;;;;;;6.93;4.88;;;;;;;;;;5072480;28;20122;-72
2021/05/09 03:58:47;;;;;;;11.25;4.82;;;;;;;;;;5072609;28;20024;-71
2021/05/09 04:01:13;;;;;;;10.05;5.10;;;;;;;;;;5069154;28;20025;-72
2021/05/09 04:03:39;;;;;;;11.35;5.55;;;;;;;;;;5073516;28;20502;-72
2021/05/09 04:06:06;;;;;;;7.88;5.03;;;;;;;;;;5073107;28;20497;-72
2021/05/09 04:08:32;;;;;;;9.55;5.10;;;;;;;;;;5070348;28;20016;-72
2021/05/09 04:10:59;;;;;;;10.80;5.07;;;;;;;;;;5073791;28;20024;-72
2021/05/09 04:13:25;;;;;;;9.77;5.55;;;;;;;;;;5090481;28;20017;-72
2021/05/09 04:15:52;;;;;;;8.93;5.00;;;;;;;;;;5076687;28;20100;-71
2021/05/09 04:18:18;;;;;;;13.63;5.68;;;;;;;;;;5069008;28;20037;-71
2021/05/09 04:20:44;;;;;;;9.80;5.00;;;;;;;;;;5078362;28;20036;-72
2021/05/09 04:23:10;;;;;;;16.02;5.68;;;;;;;;;;5079254;28;20537;-72
2021/05/09 04:25:36;;;;;;;10.30;4.80;;;;;;;;;;5073171;28;20012;-72
2021/05/09 04:28:03;;;;;;;8.77;5.20;;;;;;;;;;5063313;28;20017;-72
2021/05/09 04:30:29;;;;;;;10.50;5.55;;;;;;;;;;5077913;28;20090;-72
2021/05/09 04:32:58;;;;;;;7.68;4.57;;;;;;;;;;5071381;28;20032;-72
2021/05/09 04:35:24;;;;;;;11.38;4.93;;;;;;;;;;5079265;28;20016;-72
2021/05/09 04:37:50;;;;;;;8.32;5.45;;;;;;;;;;5068015;28;20417;-71
2021/05/09 04:40:16;;;;;;;7.90;4.85;;;;;;;;;;5071982;28;20082;-72
2021/05/09 04:42:42;;;;;;;8.60;4.50;;;;;;;;;;5073103;28;20103;-72
2021/05/09 04:45:08;;;;;;;6.85;4.65;;;;;;;;;;5062564;28;20092;-72
2021/05/09 04:47:34;;;;;;;9.38;4.53;;;;;;;;;;5071825;28;20409;-72
2021/05/09 04:50:01;;;;;;;7.63;4.57;;;;;;;;;;5078221;28;20028;-71
2021/05/09 04:52:27;;;;;;;6.72;4.80;;;;;;;;;;5081205;28;20089;-72
2021/05/09 04:54:53;;;;;;;6.47;4.05;;;;;;;;;;5081045;28;20482;-72
2021/05/09 04:57:19;;;;;;;7.43;4.57;;;;;;;;;;5084132;28;20107;-72
2021/05/09 04:59:45;;;;;;;8.00;5.38;;;;;;;;;;5074355;28;20107;-71
2021/05/09 05:02:11;;;;;;;8.80;5.28;;;;;;;;;;5069768;28;20021;-72
2021/05/09 05:04:37;;;;;;;11.05;5.03;;;;;;;;;;5072999;28;20063;-71
2021/05/09 05:07:03;;;;;;;7.47;4.72;;;;;;;;;;5070791;28;20090;-71
2021/05/09 05:09:28;;;;;;;13.50;5.40;;;;;;;;;;5077431;28;20470;-72
2021/05/09 05:11:55;;;;;;;8.20;4.38;;;;;;;;;;5073912;28;20035;-71
2021/05/09 05:14:21;;;;;;;9.13;4.60;;;;;;;;;;5072742;28;20055;-71
2021/05/09 05:16:47;;;;;;;7.97;4.40;;;;;;;;;;5071891;28;20450;-72
2021/05/09 05:19:13;;;;;;;7.20;3.92;;;;;;;;;;5071889;28;20028;-72
2021/05/09 05:21:39;;;;;;;5.57;4.20;;;;;;;;;;5075553;28;20028;-71
2021/05/09 05:24:05;;;;;;;10.25;4.63;;;;;;;;;;5073278;28;20021;-71
2021/05/09 05:26:31;;;;;;;8.77;4.50;;;;;;;;;;5072938;28;20086;-71
2021/05/09 05:28:57;;;;;;;12.10;4.53;;;;;;;;;;5069759;28;20478;-71
2021/05/09 05:31:23;;;;;;;8.18;4.15;;;;;;;;;;5072143;28;20024;-71
2021/05/09 05:33:49;;;;;;;7.25;4.38;;;;;;;;;;5073309;28;20032;-71
2021/05/09 05:36:15;;;;;;;5.88;3.85;;;;;;;;;;5066635;28;20026;-71
2021/05/09 05:38:40;;;;;;;7.35;4.05;;;;;;;;;;5079440;28;20493;-72
2021/05/09 05:41:06;;;;;;;6.78;3.83;;;;;;;;;;5071082;28;20032;-71
2021/05/09 05:43:33;;;;;;;8.32;4.32;;;;;;;;;;5072921;28;20025;-71
2021/05/09 05:45:59;;;;;;;5.72;3.35;;;;;;;;;;5066417;28;20520;-71
2021/05/09 05:48:26;;;;;;;8.02;4.10;;;;;;;;;;5069882;28;20390;-71
2021/05/09 05:50:52;;;;;;;5.03;3.65;;;;;;;;;;5066988;28;20040;-71
2021/05/09 05:53:19;;;;;;;8.95;4.05;;;;;;;;;;5071712;28;20528;-71
2021/05/09 05:55:46;;;;;;;7.18;4.03;;;;;;;;;;5067067;28;20099;-71
2021/05/09 05:58:12;;;;;;;9.52;4.30;;;;;;;;;;5069779;28;20090;-71
2021/05/09 06:00:38;;;;;;;6.22;4.13;;;;;;;;;;5067294;28;20025;-71
2021/05/09 06:03:03;;;;;;;6.30;4.05;;;;;;;;;;5069430;28;20035;-71
2021/05/09 06:05:29;;;;;;;7.93;4.13;;;;;;;;;;5064045;28;20486;-71
2021/05/09 06:07:55;;;;;;;6.40;4.45;;;;;;;;;;5074757;28;20502;-72
2021/05/09 06:10:21;;;;;;;10.50;3.90;;;;;;;;;;5072156;28;20036;-71
2021/05/09 06:12:47;;;;;;;6.32;3.92;;;;;;;;;;5065199;28;20048;-71
2021/05/09 06:15:15;;;;;;;4.90;3.47;;;;;;;;;;5069650;28;20776;-71
2021/05/09 06:17:41;;;;;;;9.07;3.47;;;;;;;;;;5073040;28;20485;-71
2021/05/09 06:20:08;;;;;;;5.43;3.60;;;;;;;;;;5071987;28;20037;-71
2021/05/09 06:22:33;;;;;;;8.65;4.20;;;;;;;;;;5064189;28;20017;-71
2021/05/09 06:24:59;;;;;;;8.15;3.80;;;;;;;;;;5066792;28;20016;-71
2021/05/09 06:27:25;;;;;;;8.25;3.85;;;;;;;;;;5071798;28;20020;-72
2021/05/09 06:29:51;;;;;;;6.10;3.63;;;;;;;;;;5086607;28;20470;-72
2021/05/09 06:32:17;;;;;;;6.95;4.07;;;;;;;;;;5073121;28;20036;-72
2021/05/09 06:34:44;;;;;;;7.38;3.95;;;;;;;;;;5071157;28;20489;-72
2021/05/09 06:37:13;;;;;;;6.85;3.63;;;;;;;;;;5070954;28;20055;-72
2021/05/09 06:39:39;;;;;;;10.43;3.88;;;;;;;;;;5079884;28;20018;-72
2021/05/09 06:42:06;;;;;;;5.97;3.25;;;;;;;;;;5076372;28;20031;-72
2021/05/09 06:44:37;;;;;;;7.63;3.38;;;;;;;;;;5070401;28;20535;-71
2021/05/09 06:47:05;;;;;;;6.00;3.35;;;;;;;;;;5069037;28;20012;-72
2021/05/09 06:49:31;;;;;;;8.23;3.63;;;;;;;;;;5071657;28;20048;-72
2021/05/09 06:51:57;;;;;;;6.13;3.65;;;;;;;;;;5069559;28;20035;-72
2021/05/09 06:54:23;;;;;;;6.03;3.60;;;;;;;;;;5071766;28;20025;-72
2021/05/09 06:56:52;;;;;;;10.25;3.60;;;;;;;;;;5073560;28;20020;-72
2021/05/09 06:59:19;;;;;;;6.15;3.83;;;;;;;;;;5067756;28;20502;-72
2021/05/09 07:01:45;;;;;;;4.75;3.33;;;;;;;;;;5062873;28;20036;-72
2021/05/09 07:04:11;;;;;;;5.60;3.60;;;;;;;;;;5068207;28;20029;-72
2021/05/09 07:06:37;;;;;;;6.10;4.07;;;;;;;;;;5072499;28;20021;-72
2021/05/09 07:09:06;;;;;;;10.30;3.30;;;;;;;;;;5069559;28;20048;-72
2021/05/09 07:11:32;;;;;;;4.85;3.55;;;;;;;;;;5080540;28;20111;-72
2021/05/09 07:13:58;;;;;;;7.57;4.53;;;;;;;;;;5076215;28;20035;-72
2021/05/09 07:16:25;;;;;;;6.30;3.97;;;;;;;;;;5070854;28;20024;-72
2021/05/09 07:18:51;;;;;;;9.80;3.83;;;;;;;;;;5070478;28;20097;-72
2021/05/09 07:21:23;;;;;;;5.07;3.20;;;;;;;;;;5066340;28;20041;-72
2021/05/09 07:23:49;;;;;;;5.25;3.03;;;;;;;;;;5070314;28;20059;-72
2021/05/09 07:26:15;;;;;;;5.18;3.05;;;;;;;;;;5069213;28;20056;-72
2021/05/09 07:28:41;;;;;;;7.05;3.35;;;;;;;;;;5064946;28;20347;-72
2021/05/09 07:31:07;;;;;;;4.97;3.15;;;;;;;;;;5068682;28;20028;-72
2021/05/09 07:33:33;;;;;;;6.07;3.20;;;;;;;;;;5065503;28;20531;-72
2021/05/09 07:35:59;;;;;;;7.47;3.78;;;;;;;;;;5060878;28;20025;-72
2021/05/09 07:38:25;;;;;;;6.57;3.25;;;;;;;;;;5070813;28;20434;-72
2021/05/09 07:40:51;;;;;;;6.65;3.70;;;;;;;;;;5063709;28;20099;-72
2021/05/09 07:43:18;;;;;;;8.02;3.50;;;;;;;;;;5071431;28;20108;-72
2021/05/09 07:45:44;;;;;;;8.27;3.60;;;;;;;;;;5070498;28;20035;-72
2021/05/09 07:48:10;;;;;;;6.70;3.88;;;;;;;;;;5072714;28;20107;-72
2021/05/09 07:50:36;;;;;;;4.80;3.10;;;;;;;;;;5063702;28;20319;-72
2021/05/09 07:53:03;;;;;;;4.72;3.15;;;;;;;;;;5066382;28;20103;-72
2021/05/09 07:55:29;;;;;;;4.55;3.38;;;;;;;;;;5073418;28;20020;-72
2021/05/09 07:57:55;;;;;;;8.45;4.20;;;;;;;;;;5085028;28;20385;-72
2021/05/09 08:00:22;;;;;;;8.57;4.13;;;;;;;;;;5060791;28;20029;-72
2021/05/09 08:02:49;;;;;;;8.20;3.42;;;;;;;;;;5066206;28;20497;-72
2021/05/09 08:05:15;;;;;;;6.28;3.90;;;;;;;;;;5069436;28;20025;-72
2021/05/09 08:07:55;;;;;;;6.07;3.90;;;;;;;;;;5066873;28;20123;-72
2021/05/09 08:10:22;;;;;;;7.28;4.07;;;;;;;;;;5066565;28;20077;-72
2021/05/09 08:12:48;;;;;;;8.68;5.18;;;;;;;;;;5067080;28;20098;-72
2021/05/09 08:15:14;;;;;;;7.35;4.03;;;;;;;;;;5066905;28;20107;-72
2021/05/09 08:17:40;;;;;;;7.78;3.85;;;;;;;;;;5059222;28;20501;-72
2021/05/09 08:20:07;;;;;;;6.85;4.25;;;;;;;;;;5070666;28;20064;-72
2021/05/09 08:22:33;;;;;;;7.40;3.72;;;;;;;;;;5063207;28;20093;-72
2021/05/09 08:24:59;;;;;;;5.40;3.13;;;;;;;;;;5066801;28;20478;-72
2021/05/09 08:27:28;;;;;;;12.10;3.70;;;;;;;;;;5063220;28;20103;-72
2021/05/09 08:29:54;;;;;;;3.95;2.92;;;;;;;;;;5067062;28;20358;-70
2021/05/09 08:32:20;;;;;;;3.35;2.33;;;;;;;;;;5064003;28;20024;-69
2021/05/09 08:34:46;;;;;;;6.95;2.88;;;;;;;;;;5068154;28;20110;-69
2021/05/09 08:37:12;;;;;;;5.85;2.72;;;;;;;;;;5067039;28;20074;-69
2021/05/09 08:39:39;;;;;;;4.47;2.30;;;;;;;;;;5064567;28;20135;-70
2021/05/09 08:42:06;;;;;;;4.10;2.35;;;;;;;;;;5067745;28;20032;-69
2021/05/09 08:44:33;;;;;;;4.45;2.22;;;;;;;;;;5062033;28;20020;-69
2021/05/09 08:47:00;;;;;;;4.50;2.85;;;;;;;;;;5063505;28;20021;-69
2021/05/09 08:49:27;;;;;;;4.50;2.53;;;;;;;;;;5066638;28;21537;-70
2021/05/09 08:51:53;;;;;;;3.80;2.17;;;;;;;;;;5064359;28;20027;-69
2021/05/09 08:54:19;;;;;;;4.70;2.20;;;;;;;;;;5067453;28;20029;-70
2021/05/09 08:56:45;;;;;;;5.30;2.78;;;;;;;;;;5067477;28;20464;-69
2021/05/09 08:59:11;;;;;;;4.57;2.80;;;;;;;;;;5067308;28;20025;-69
2021/05/09 09:01:40;;;;;;;5.43;3.10;;;;;;;;;;5067884;28;20029;-70
2021/05/09 09:04:06;;;;;;;8.00;2.50;;;;;;;;;;5063832;28;20386;-71
2021/05/09 09:06:39;;;;;;;4.35;2.40;;;;;;;;;;5066142;28;20024;-70
2021/05/09 09:09:05;;;;;;;4.43;2.22;;;;;;;;;;5069730;28;20021;-70
2021/05/09 09:11:31;;;;;;;4.13;2.47;;;;;;;;;;5071028;28;20100;-70
2021/05/09 09:14:08;;;;;;;4.07;2.80;;;;;;;;;;5066272;28;20040;-68
2021/05/09 09:16:34;;;;;;;7.00;2.35;;;;;;;;;;5066798;28;20039;-68
2021/05/09 09:19:06;;;;;;;5.18;2.40;;;;;;;;;;5068165;28;20035;-69
2021/05/09 09:21:32;;;;;;;5.25;2.50;;;;;;;;;;5064871;28;20029;-69
2021/05/09 09:24:04;;;;;;;4.57;2.58;;;;;;;;;;5064925;28;20066;-69
2021/05/09 09:26:39;;;;;;;4.45;2.35;;;;;;;;;;5068376;28;20025;-69
2021/05/09 09:29:25;;;;;;;4.03;2.45;;;;;;;;;;5062728;28;20046;-69
2021/05/09 09:31:54;;;;;;;5.28;2.85;;;;;;;;;;5062319;28;20324;-69
2021/05/09 09:34:21;;;;;;;3.67;2.53;;;;;;;;;;5070697;28;20111;-69
2021/05/09 09:36:47;;;;;;;4.82;2.78;;;;;;;;;;5061619;28;20259;-69
2021/05/09 09:39:13;;;;;;;7.75;2.67;;;;;;;;;;5064156;28;20563;-71
2021/05/09 09:41:47;;;;;;;5.88;2.72;;;;;;;;;;5062694;28;20477;-70
2021/05/09 09:44:15;;;;;;;4.60;2.60;;;;;;;;;;5072763;28;20029;-71
2021/05/09 09:46:50;;;;;;;4.53;2.42;;;;;;;;;;5070497;28;20090;-70
2021/05/09 09:49:20;;;;;;;4.93;3.05;;;;;;;;;;5072562;28;20095;-70
2021/05/09 09:51:54;;;;;;;5.68;3.15;;;;;;;;;;5071614;28;20107;-70
2021/05/09 09:54:33;;;;;;;7.28;2.72;;;;;;;;;;5068306;28;20024;-71
2021/05/09 09:57:00;;;;;;;;;;;;;;;;;;5071044;28;20366;-70
2021/05/09 09:59:26;;;;;;;4.85;2.70;;;;;;;;;;5075669;28;19912;-70
2021/05/09 10:01:53;;;;;;;4.72;2.92;;;;;;;;;;5070638;28;20021;-71
2021/05/09 10:04:19;;;;;;;9.10;2.90;;;;;;;;;;5063734;28;20057;-70
2021/05/09 10:06:45;;;;;;;6.90;3.05;;;;;;;;;;5070409;28;20044;-71
2021/05/09 10:09:11;;;;;;;6.57;3.50;;;;;;;;;;5066752;28;20031;-71
2021/05/09 10:11:37;;;;;;;5.22;2.85;;;;;;;;;;5074726;28;20035;-70
2021/05/09 10:14:03;;;;;;;4.00;2.55;;;;;;;;;;5068256;28;20564;-71
2021/05/09 10:16:31;;;;;;;3.35;2.42;;;;;;;;;;5070565;28;20040;-71
2021/05/09 10:19:01;;;;;;;2.72;2.10;;;;;;;;;;5069697;28;20070;-71
2021/05/09 10:21:28;;;;;;;3.13;2.22;;;;;;;;;;5071588;28;20086;-70
2021/05/09 10:24:12;;;;;;;4.13;2.42;;;;;;;;;;5072535;28;20397;-71
2021/05/09 10:26:50;;;;;;;4.65;2.42;;;;;;;;;;5069044;28;20032;-71
2021/05/09 10:29:36;;;;;;;4.18;2.17;;;;;;;;;;5073574;28;20064;-70
2021/05/09 10:32:08;;;;;;;6.72;2.08;;;;;;;;;;5069403;28;20036;-71
2021/05/09 10:35:01;;;;;;;6.15;1.92;;;;;;;;;;5068475;28;20055;-71
2021/05/09 10:37:40;;;;;;;3.15;1.85;;;;;;;;;;5062872;28;20055;-71
2021/05/09 10:40:25;;;;;;;4.32;2.22;;;;;;;;;;5062607;28;20040;-71
2021/05/09 10:43:03;;;;;;;6.60;2.42;;;;;;;;;;5063891;28;20135;-71
2021/05/09 10:45:35;;;;;;;3.08;2.00;;;;;;;;;;5068317;28;20024;-70
2021/05/09 10:48:24;;;;;;;3.20;1.65;;;;;;;;;;5070066;28;20023;-69
2021/05/09 10:50:51;;;;;;;5.73;1.77;;;;;;;;;;5062786;28;20032;-67
2021/05/09 10:56:18;;;;;;;10.52;3.15;;;;;;;;;;5070474;28;20102;-68
2021/05/09 10:58:47;;;;;;;6.35;2.38;;;;;;;;;;5062634;28;20024;-68
2021/05/09 11:01:13;;;;;;;2.90;1.83;;;;;;;;;;5061470;28;20482;-68
2021/05/09 11:03:40;;;;;;;7.35;2.70;;;;;;;;;;5066880;28;20033;-68
2021/05/09 11:06:06;;;;;;;4.05;2.38;;;;;;;;;;5067502;28;20099;-68
2021/05/09 11:08:59;;;;;;;5.57;2.05;;;;;;;;;;5072514;28;20127;-68
2021/05/09 11:11:31;;;;;;;2.95;2.08;;;;;;;;;;5053700;28;20043;-68
2021/05/09 11:14:18;;;;;;;3.83;2.33;;;;;;;;;;5071439;28;20116;-68
2021/05/09 11:17:01;;;;;;;5.00;2.13;;;;;;;;;;5068077;28;20032;-67
2021/05/09 11:19:43;;;;;;;6.38;2.50;;;;;;;;;;5069364;28;20113;-67
2021/05/09 11:22:09;;;;;;;5.55;2.38;;;;;;;;;;5066378;28;20025;-68
2021/05/09 11:24:36;;;;;;;5.00;2.45;;;;;;;;;;5075985;28;20084;-68
2021/05/09 11:27:16;;;;;;;3.30;2.10;;;;;;;;;;5063698;28;20477;-69
2021/05/09 11:29:42;;;;;;;5.13;2.40;;;;;;;;;;5067076;28;20095;-69
2021/05/09 11:32:10;;;;;;;6.90;2.28;;;;;;;;;;5070729;28;20036;-68
2021/05/09 11:34:36;;;;;;;2.80;2.00;;;;;;;;;;5067491;28;20089;-68
2021/05/09 11:37:02;;;;;;;4.35;2.00;;;;;;;;;;5067421;28;20024;-68
2021/05/09 11:39:33;;;;;;;3.97;1.63;;;;;;;;;;5068782;28;20051;-68
2021/05/09 11:42:00;;;;;;;2.97;1.80;;;;;;;;;;5068485;28;20366;-70
2021/05/09 11:44:37;;;;;;;2.97;1.67;;;;;;;;;;5065957;28;20617;-70
2021/05/09 11:47:04;;;;;;;5.22;2.35;;;;;;;;;;5063723;28;20028;-70
2021/05/09 11:49:31;;;;;;;4.32;2.17;;;;;;;;;;5069323;28;20359;-70
2021/05/09 11:51:58;;;;;;;5.32;2.30;;;;;;;;;;5070704;28;20021;-70
2021/05/09 11:54:28;;;;;;;5.13;1.88;;;;;;;;;;5072979;28;20027;-71
2021/05/09 11:56:57;;;;;;;3.67;1.98;;;;;;;;;;5064624;28;20492;-70
2021/05/09 11:59:35;;;;;;;3.92;2.00;;;;;;;;;;5063506;28;20024;-70
2021/05/09 12:02:02;;;;;;;3.38;2.50;;;;;;;;;;5062578;28;20441;-70
2021/05/09 12:04:32;;;;;;;3.92;2.80;;;;;;;;;;5066701;28;20074;-70
2021/05/09 12:06:59;;;;;;;9.95;2.50;;;;;;;;;;5057752;28;20048;-71
2021/05/09 12:09:25;;;;;;;4.68;2.30;;;;;;;;;;5064152;28;20023;-72
2021/05/09 12:11:52;;;;;;;4.25;2.33;;;;;;;;;;5063662;28;20055;-71
2021/05/09 12:14:18;;;;;;;10.52;2.83;;;;;;;;;;5060339;28;20028;-71
2021/05/09 12:16:44;;;;;;;3.92;1.90;;;;;;;;;;5065986;28;20036;-74
2021/05/09 12:19:11;;;;;;;11.55;2.67;;;;;;;;;;5061015;28;20568;-69
2021/05/09 12:21:40;;;;;;;3.40;2.17;;;;;;;;;;5054740;28;20046;-70
2021/05/09 12:24:07;;;;;;;5.35;2.45;;;;;;;;;;5021039;28;20025;-69
2021/05/09 12:26:34;;;;;;;2.63;1.77;;;;;;;;;;5022663;28;20379;-69
2021/05/09 12:29:16;;;;;;;4.32;2.05;;;;;;;;;;5019522;28;20041;-69
2021/05/09 12:31:42;;;;;;;9.75;1.95;;;;;;;;;;5021859;28;20017;-68
2021/05/09 12:34:10;;;;;;;3.78;1.90;;;;;;;;;;5028733;28;20087;-67
2021/05/09 12:36:36;;;;;;;4.30;2.15;;;;;;;;;;5034311;28;20411;-67
2021/05/09 12:39:03;;;;;;;6.10;2.05;;;;;;;;;;5040153;28;20039;-69
2021/05/09 12:41:30;;;;;;;4.63;1.58;;;;;;;;;;5030326;28;20020;-68
2021/05/09 12:43:57;;;;;;;4.35;1.92;;;;;;;;;;5030418;28;20605;-67
2021/05/09 12:46:40;;;;;;;5.00;1.80;;;;;;;;;;5023040;28;20022;-67
2021/05/09 12:49:07;;;;;;;4.53;1.80;;;;;;;;;;5024106;28;20109;-68
2021/05/09 12:51:33;;;;;;;4.78;1.92;;;;;;;;;;5023178;28;20030;-67
2021/05/09 12:53:59;;;;;;;4.72;1.90;;;;;;;;;;5023739;28;20104;-67
2021/05/09 12:56:29;;;;;;;13.60;2.25;;;;;;;;;;5027808;28;20104;-70
2021/05/09 12:58:58;;;;;;;5.53;2.38;;;;;;;;;;5017797;28;20029;-68
2021/05/09 13:01:24;;;;;;;1.88;1.40;;;;;;;;;;5023453;28;20043;-67
2021/05/09 13:03:50;;;;;;;2.97;1.67;;;;;;;;;;5022960;28;20034;-69
2021/05/09 13:06:16;;;;;;;4.57;1.80;;;;;;;;;;5022283;28;20029;-71
2021/05/09 13:08:42;;;;;;;3.20;1.40;;;;;;;;;;5026289;28;20033;-71
2021/05/09 13:11:08;;;;;;;6.18;1.75;;;;;;;;;;5027507;28;20026;-71
2021/05/09 13:13:34;;;;;;;5.00;1.58;;;;;;;;;;5025245;28;20518;-71
2021/05/09 13:15:59;;;;;;;4.20;1.88;;;;;;;;;;5030226;28;20541;-71
2021/05/09 13:18:25;;;;;;;3.15;1.73;;;;;;;;;;5029438;28;20032;-71
2021/05/09 13:20:51;;;;;;;4.70;2.33;;;;;;;;;;5025276;28;20022;-71
2021/05/09 13:23:17;;;;;;;5.18;2.03;;;;;;;;;;5029132;28;20099;-71
2021/05/09 13:25:46;;;;;;;3.63;1.73;;;;;;;;;;5038545;28;20049;-71
2021/05/09 13:28:12;;;;;;;6.55;2.15;;;;;;;;;;5024888;28;20025;-71
2021/05/09 13:30:38;;;;;;;4.20;1.60;;;;;;;;;;5032251;28;20038;-71
2021/05/09 13:33:05;;;;;;;2.80;1.70;;;;;;;;;;5035731;28;20083;-68
2021/05/09 13:35:31;;;;;;;3.60;1.85;;;;;;;;;;5024772;28;20026;-69
2021/05/09 13:37:57;;;;;;;4.97;1.70;;;;;;;;;;5026458;28;20148;-69
2021/05/09 13:40:23;;;;;;;4.07;1.92;;;;;;;;;;5022759;28;20021;-68
2021/05/09 13:42:49;;;;;;;7.47;1.88;;;;;;;;;;5030352;28;20017;-68
2021/05/09 13:45:15;;;;;;;4.55;1.77;;;;;;;;;;5031429;28;20594;-69
2021/05/09 13:47:41;;;;;;;4.45;2.25;;;;;;;;;;5026916;28;20045;-68
2021/05/09 13:50:07;;;;;;;6.20;1.90;;;;;;;;;;5028703;28;20475;-70
2021/05/09 13:52:33;;;;;;;4.32;1.80;;;;;;;;;;5028284;28;20364;-69
2021/05/09 13:54:59;;;;;;;4.82;2.20;;;;;;;;;;5029779;28;20082;-68
2021/05/09 13:57:25;;;;;;;5.85;2.20;;;;;;;;;;5031308;28;20101;-69
2021/05/09 13:59:51;;;;;;;5.72;1.90;;;;;;;;;;5028844;28;20128;-69
2021/05/09 14:02:17;;;;;;;4.30;2.45;;;;;;;;;;5025647;28;20029;-69
2021/05/09 14:04:43;;;;;;;8.18;2.15;;;;;;;;;;5025673;28;20025;-69
2021/05/09 14:07:09;;;;;;;3.88;1.95;;;;;;;;;;5026818;28;20078;-69
2021/05/09 14:09:35;;;;;;;4.47;2.03;;;;;;;;;;5028252;28;20036;-69
2021/05/09 14:12:03;;;;;;;3.78;2.30;;;;;;;;;;5030127;28;20033;-68
2021/05/09 14:14:29;;;;;;;5.25;2.40;;;;;;;;;;5019311;28;20167;-69
2021/05/09 14:16:57;;;;;;;6.03;2.45;;;;;;;;;;5019640;28;20148;-69
2021/05/09 14:19:23;;;;;;;7.07;2.78;;;;;;;;;;5023798;28;20025;-69
2021/05/09 14:21:49;;;;;;;10.23;2.38;;;;;;;;;;5024189;28;20372;-69
2021/05/09 14:24:15;;;;;;;5.32;2.58;;;;;;;;;;5025522;28;20033;-69
2021/05/09 14:26:41;;;;;;;4.50;2.50;;;;;;;;;;5021590;28;20784;-69
2021/05/09 14:29:07;;;;;;;4.80;2.55;;;;;;;;;;5028155;28;20033;-69
2021/05/09 14:31:33;;;;;;;8.43;2.75;;;;;;;;;;5027422;28;20037;-69
2021/05/09 14:33:59;;;;;;;6.75;3.30;;;;;;;;;;5026885;28;20096;-69
2021/05/09 14:36:25;;;;;;;5.80;2.95;;;;;;;;;;5025656;28;20049;-68
2021/05/09 14:38:51;;;;;;;6.18;2.80;;;;;;;;;;5025913;28;20059;-68
2021/05/09 14:41:17;;;;;;;7.35;2.47;;;;;;;;;;5020084;28;20030;-68
2021/05/09 14:43:43;;;;;;;3.72;2.70;;;;;;;;;;5021080;28;20034;-68
2021/05/09 14:46:09;;;;;;;10.00;3.00;;;;;;;;;;5021790;28;20075;-68